createdAt,value
2018-03-24T00:01:08.005Z,1.89
2018-03-24T00:03:34.261Z,1.92
2018-03-24T00:06:00.530Z,1.93
2018-03-24T00:08:26.898Z,1.93
2018-03-24T00:10:52.910Z,1.97
2018-03-24T00:13:18.809Z,1.98
2018-03-24T00:15:47.389Z,1.99
2018-03-24T00:18:13.248Z,2.00
2018-03-24T00:20:39.268Z,1.95
2018-03-24T00:23:05.142Z,2.02
2018-03-24T00:25:31.001Z,2.01
2018-03-24T00:27:56.920Z,2.20
2018-03-24T00:30:22.768Z,2.08
2018-03-24T00:32:48.617Z,2.02
2018-03-24T00:35:14.526Z,2.04
2018-03-24T00:37:40.413Z,2.10
2018-03-24T00:40:06.276Z,2.07
2018-03-24T00:42:32.172Z,2.06
2018-03-24T00:44:58.020Z,2.03
2018-03-24T00:47:23.872Z,1.99
2018-03-24T00:49:49.768Z,2.04
2018-03-24T00:52:15.626Z,2.07
2018-03-24T00:54:41.468Z,2.09
2018-03-24T00:57:07.377Z,2.13
2018-03-24T00:59:33.227Z,2.17
2018-03-24T01:01:59.081Z,2.09
2018-03-24T01:04:25.305Z,2.14
2018-03-24T01:06:51.193Z,2.10
2018-03-24T01:09:17.146Z,2.12
2018-03-24T01:11:43.032Z,2.09
2018-03-24T01:14:08.889Z,2.07
2018-03-24T01:16:34.750Z,2.00
2018-03-24T01:19:00.733Z,2.03
2018-03-24T01:21:26.688Z,2.05
2018-03-24T01:23:52.527Z,1.98
2018-03-24T01:26:18.422Z,1.92
2018-03-24T01:28:44.277Z,1.95
2018-03-24T01:31:10.206Z,1.95
2018-03-24T01:33:36.404Z,1.91
2018-03-24T01:36:02.272Z,1.92
2018-03-24T01:38:28.221Z,1.90
2018-03-24T01:40:54.126Z,1.96
2018-03-24T01:43:20.048Z,1.94
2018-03-24T01:45:45.892Z,1.89
2018-03-24T01:48:11.800Z,1.99
2018-03-24T01:50:37.658Z,1.91
2018-03-24T01:53:03.516Z,1.96
2018-03-24T01:55:29.504Z,1.89
2018-03-24T01:57:55.356Z,1.92
2018-03-24T02:00:21.223Z,1.96
2018-03-24T02:02:47.910Z,1.99
2018-03-24T02:05:13.794Z,2.06
2018-03-24T02:07:39.721Z,2.04
2018-03-24T02:10:05.626Z,2.07
2018-03-24T02:12:31.483Z,2.05
2018-03-24T02:14:57.329Z,1.99
2018-03-24T02:17:23.306Z,2.10
2018-03-24T02:19:49.260Z,2.06
2018-03-24T02:22:15.104Z,2.07
2018-03-24T02:24:42.480Z,2.05
2018-03-24T02:27:08.544Z,2.06
2018-03-24T02:29:34.393Z,1.97
2018-03-24T02:32:00.429Z,1.88
2018-03-24T02:34:26.302Z,1.89
2018-03-24T02:36:52.168Z,1.85
2018-03-24T02:39:18.225Z,1.89
2018-03-24T02:41:44.086Z,1.80
2018-03-24T02:44:10.035Z,1.72
2018-03-24T02:46:36.026Z,1.71
2018-03-24T02:49:01.889Z,1.75
2018-03-24T02:51:27.741Z,1.73
2018-03-24T02:53:53.625Z,1.75
2018-03-24T02:56:19.536Z,1.74
2018-03-24T02:58:45.391Z,1.69
2018-03-24T03:01:11.322Z,1.68
2018-03-24T03:03:37.190Z,1.65
2018-03-24T03:06:03.084Z,1.64
2018-03-24T03:08:29.082Z,1.72
2018-03-24T03:10:54.940Z,1.63
2018-03-24T03:13:20.807Z,1.60
2018-03-24T03:15:46.726Z,1.59
2018-03-24T03:18:12.585Z,1.60
2018-03-24T03:20:38.537Z,1.57
2018-03-24T03:23:04.430Z,1.61
2018-03-24T03:25:30.280Z,1.60
2018-03-24T03:27:56.190Z,1.63
2018-03-24T03:30:28.283Z,1.61
2018-03-24T03:32:54.270Z,1.62
2018-03-24T03:35:20.138Z,1.61
2018-03-24T03:37:46.035Z,1.65
2018-03-24T03:40:11.901Z,1.63
2018-03-24T03:42:37.748Z,1.64
2018-03-24T03:45:03.781Z,1.67
2018-03-24T03:47:29.653Z,1.66
2018-03-24T03:49:55.509Z,1.61
2018-03-24T03:52:21.387Z,1.63
2018-03-24T03:54:47.244Z,1.60
2018-03-24T03:57:13.180Z,1.68
2018-03-24T03:59:39.072Z,1.67
2018-03-24T04:02:04.928Z,1.65
2018-03-24T04:04:30.845Z,1.68
2018-03-24T04:06:56.732Z,1.63
2018-03-24T04:09:22.689Z,1.68
2018-03-24T04:11:48.543Z,1.62
2018-03-24T04:14:14.814Z,1.69
2018-03-24T04:16:40.732Z,1.62
2018-03-24T04:19:06.589Z,1.64
2018-03-24T04:21:32.579Z,1.68
2018-03-24T04:23:58.441Z,1.63
2018-03-24T04:26:24.301Z,1.65
2018-03-24T04:28:50.200Z,1.61
2018-03-24T04:31:16.120Z,1.60
2018-03-24T04:33:42.068Z,1.59
2018-03-24T04:36:07.958Z,1.63
2018-03-24T04:38:33.816Z,1.67
2018-03-24T04:40:59.677Z,1.62
2018-03-24T04:43:25.920Z,1.59
2018-03-24T04:45:51.862Z,1.61
2018-03-24T04:48:17.717Z,1.60
2018-03-24T04:50:43.602Z,1.62
2018-03-24T04:53:09.471Z,1.64
2018-03-24T04:55:35.321Z,1.67
2018-03-24T04:58:01.310Z,1.65
2018-03-24T05:00:27.903Z,1.67
2018-03-24T05:02:53.770Z,1.69
2018-03-24T05:05:19.697Z,1.79
2018-03-24T05:07:45.603Z,1.72
2018-03-24T05:10:11.552Z,1.73
2018-03-24T05:12:37.543Z,1.68
2018-03-24T05:15:03.418Z,1.72
2018-03-24T05:17:29.273Z,1.74
2018-03-24T05:19:55.213Z,1.71
2018-03-24T05:22:21.157Z,1.76
2018-03-24T05:24:47.057Z,1.82
2018-03-24T05:27:13.328Z,1.84
2018-03-24T05:29:39.198Z,1.87
2018-03-24T05:32:05.114Z,1.87
2018-03-24T05:34:31.154Z,1.86
2018-03-24T05:36:57.012Z,1.90
2018-03-24T05:39:22.866Z,1.91
2018-03-24T05:41:48.770Z,1.90
2018-03-24T05:44:14.685Z,1.88
2018-03-24T05:46:40.620Z,1.94
2018-03-24T05:49:06.504Z,1.94
2018-03-24T05:51:32.360Z,1.96
2018-03-24T05:53:58.208Z,1.94
2018-03-24T05:56:24.162Z,1.97
2018-03-24T05:58:50.097Z,1.95
2018-03-24T06:01:15.953Z,2.13
2018-03-24T06:03:41.857Z,2.03
2018-03-24T06:06:07.805Z,2.03
2018-03-24T06:08:33.745Z,2.14
2018-03-24T06:10:59.716Z,2.14
2018-03-24T06:13:25.631Z,2.16
2018-03-24T06:15:51.482Z,2.28
2018-03-24T06:18:17.378Z,2.27
2018-03-24T06:20:43.241Z,2.28
2018-03-24T06:23:09.137Z,2.28
2018-03-24T06:25:35.049Z,2.33
2018-03-24T06:28:00.921Z,2.36
2018-03-24T06:30:26.790Z,2.31
2018-03-24T06:32:52.705Z,2.49
2018-03-24T06:35:18.578Z,2.33
2018-03-24T06:37:44.427Z,2.39
2018-03-24T06:40:10.421Z,2.41
2018-03-24T06:42:36.286Z,2.48
2018-03-24T06:45:02.152Z,2.50
2018-03-24T06:47:28.058Z,2.67
2018-03-24T06:49:53.968Z,2.60
2018-03-24T06:52:19.830Z,2.51
2018-03-24T06:54:45.715Z,2.59
2018-03-24T06:57:11.564Z,2.58
2018-03-24T06:59:37.418Z,2.60
2018-03-24T07:02:03.392Z,2.63
2018-03-24T07:04:29.247Z,2.68
2018-03-24T07:06:55.125Z,2.74
2018-03-24T07:09:21.021Z,2.69
2018-03-24T07:11:46.933Z,2.73
2018-03-24T07:14:12.811Z,2.88
2018-03-24T07:16:38.721Z,2.82
2018-03-24T07:19:04.589Z,2.87
2018-03-24T07:21:30.440Z,2.79
2018-03-24T07:23:56.346Z,2.88
2018-03-24T07:26:22.201Z,2.95
2018-03-24T07:28:48.049Z,3.03
2018-03-24T07:31:13.965Z,3.05
2018-03-24T07:33:39.830Z,3.15
2018-03-24T07:36:05.703Z,3.14
2018-03-24T07:38:31.608Z,3.21
2018-03-24T07:40:57.465Z,3.25
2018-03-24T07:43:23.309Z,3.34
2018-03-24T07:45:49.197Z,3.39
2018-03-24T07:48:15.161Z,3.50
2018-03-24T07:50:41.044Z,3.49
2018-03-24T07:53:06.947Z,3.52
2018-03-24T07:55:32.810Z,3.51
2018-03-24T07:57:58.660Z,3.66
2018-03-24T08:00:24.560Z,3.70
2018-03-24T08:02:50.420Z,3.46
2018-03-24T08:05:16.277Z,3.56
2018-03-24T08:07:42.174Z,3.55
2018-03-24T08:10:08.090Z,3.65
2018-03-24T08:12:33.996Z,3.81
2018-03-24T08:14:59.912Z,3.77
2018-03-24T08:17:25.808Z,3.76
2018-03-24T08:19:51.742Z,3.92
2018-03-24T08:22:17.735Z,4.07
2018-03-24T08:24:43.602Z,4.26
2018-03-24T08:27:09.577Z,4.36
2018-03-24T08:29:35.573Z,4.21
2018-03-24T08:32:01.605Z,4.22
2018-03-24T08:34:27.504Z,4.21
2018-03-24T08:36:53.441Z,4.42
2018-03-24T08:39:19.317Z,4.33
2018-03-24T08:41:45.160Z,4.31
2018-03-24T08:44:11.045Z,4.32
2018-03-24T08:46:36.894Z,4.29
2018-03-24T08:49:02.750Z,4.30
2018-03-24T08:51:28.650Z,4.23
2018-03-24T08:53:54.609Z,4.31
2018-03-24T08:56:20.477Z,4.42
2018-03-24T08:58:46.385Z,4.57
2018-03-24T09:01:12.236Z,4.71
2018-03-24T09:03:38.096Z,4.67
2018-03-24T09:06:03.989Z,4.91
2018-03-24T09:08:29.840Z,4.77
2018-03-24T09:10:55.689Z,4.91
2018-03-24T09:13:21.717Z,4.99
2018-03-24T09:15:47.582Z,5.18
2018-03-24T09:18:13.461Z,4.97
2018-03-24T09:20:39.373Z,5.05
2018-03-24T09:23:05.228Z,5.30
2018-03-24T09:25:31.098Z,5.24
2018-03-24T09:27:57.039Z,5.40
2018-03-24T09:30:22.942Z,5.29
2018-03-24T09:32:48.810Z,5.24
2018-03-24T09:35:14.698Z,5.16
2018-03-24T09:37:40.557Z,5.44
2018-03-24T09:40:06.417Z,5.40
2018-03-24T09:42:32.334Z,5.34
2018-03-24T09:44:58.185Z,5.49
2018-03-24T09:47:24.077Z,5.64
2018-03-24T09:49:49.960Z,5.64
2018-03-24T09:52:15.843Z,5.71
2018-03-24T09:54:41.740Z,5.95
2018-03-24T09:57:07.629Z,5.75
2018-03-24T09:59:33.481Z,5.71
2018-03-24T10:01:59.326Z,5.83
2018-03-24T10:04:25.218Z,5.83
2018-03-24T10:06:51.078Z,6.21
2018-03-24T10:09:16.942Z,6.42
2018-03-24T10:11:42.854Z,6.45
2018-03-24T10:14:09.629Z,6.12
2018-03-24T10:16:35.481Z,6.17
2018-03-24T10:19:01.542Z,6.44
2018-03-24T10:24:32.426Z,6.53
2018-03-24T10:26:58.286Z,6.49
2018-03-24T10:29:24.132Z,6.78
2018-03-24T10:31:50.021Z,7.16
2018-03-24T10:34:15.874Z,6.87
2018-03-24T10:36:41.753Z,6.65
2018-03-24T10:39:07.633Z,6.66
2018-03-24T10:41:33.493Z,6.25
2018-03-24T10:43:59.353Z,6.50
2018-03-24T10:46:25.252Z,6.57
2018-03-24T10:48:51.121Z,6.63
2018-03-24T10:51:17.006Z,6.77
2018-03-24T10:53:42.934Z,6.67
2018-03-24T10:56:08.816Z,6.65
2018-03-24T10:58:34.781Z,6.19
2018-03-24T11:01:02.765Z,6.49
2018-03-24T11:03:28.616Z,6.55
2018-03-24T11:05:54.497Z,6.82
2018-03-24T11:08:20.415Z,6.61
2018-03-24T11:10:46.269Z,6.62
2018-03-24T11:13:12.111Z,6.53
2018-03-24T11:15:38.053Z,6.51
2018-03-24T11:18:03.917Z,6.11
2018-03-24T11:20:29.766Z,6.31
2018-03-24T11:22:55.658Z,6.10
2018-03-24T11:25:21.504Z,6.32
2018-03-24T11:27:47.405Z,6.46
2018-03-24T11:30:13.304Z,6.49
2018-03-24T11:32:39.160Z,6.51
2018-03-24T11:35:05.028Z,6.38
2018-03-24T11:37:30.920Z,6.86
2018-03-24T11:39:56.764Z,6.61
2018-03-24T11:42:22.698Z,6.66
2018-03-24T11:44:48.597Z,6.33
2018-03-24T11:47:14.461Z,6.53
2018-03-24T11:49:40.305Z,6.61
2018-03-24T11:52:06.202Z,6.69
2018-03-24T11:54:42.268Z,6.79
2018-03-24T11:57:08.174Z,6.90
2018-03-24T11:59:34.024Z,6.91
2018-03-24T12:01:59.876Z,7.24
2018-03-24T12:04:25.766Z,7.11
2018-03-24T12:06:51.619Z,7.17
2018-03-24T12:09:17.456Z,7.65
2018-03-24T12:11:43.357Z,7.52
2018-03-24T12:14:09.213Z,7.47
2018-03-24T12:16:35.110Z,7.45
2018-03-24T12:19:01.003Z,7.58
2018-03-24T12:21:26.875Z,7.79
2018-03-24T12:23:52.740Z,7.45
2018-03-24T12:26:18.628Z,7.62
2018-03-24T12:28:44.468Z,8.09
2018-03-24T12:31:10.372Z,7.91
2018-03-24T12:33:36.276Z,7.19
2018-03-24T12:36:02.139Z,7.41
2018-03-24T12:38:28.006Z,7.77
2018-03-24T12:40:53.905Z,8.13
2018-03-24T12:43:19.753Z,8.12
2018-03-24T12:45:45.593Z,7.70
2018-03-24T12:48:11.520Z,7.47
2018-03-24T12:50:37.365Z,7.26
2018-03-24T12:53:03.205Z,7.04
2018-03-24T12:55:29.106Z,7.66
2018-03-24T12:57:54.959Z,7.69
2018-03-24T13:00:20.805Z,7.49
2018-03-24T13:02:46.689Z,7.81
2018-03-24T13:05:12.541Z,8.12
2018-03-24T13:07:38.388Z,7.89
2018-03-24T13:10:04.285Z,8.25
2018-03-24T13:12:30.202Z,8.50
2018-03-24T13:14:56.061Z,8.49
2018-03-24T13:17:22.017Z,7.68
2018-03-24T13:19:47.885Z,7.81
2018-03-24T13:22:13.746Z,7.91
2018-03-24T13:24:39.643Z,7.60
2018-03-24T13:27:05.500Z,7.63
2018-03-24T13:29:31.349Z,7.44
2018-03-24T13:31:57.233Z,7.62
2018-03-24T13:34:23.089Z,7.49
2018-03-24T13:36:48.938Z,7.76
2018-03-24T13:39:14.823Z,7.69
2018-03-24T13:41:40.686Z,7.75
2018-03-24T13:44:06.549Z,7.80
2018-03-24T13:46:32.440Z,7.48
2018-03-24T13:48:58.306Z,7.75
2018-03-24T13:51:24.167Z,7.53
2018-03-24T13:53:50.055Z,7.20
2018-03-24T13:56:15.964Z,7.39
2018-03-24T13:58:41.836Z,7.19
2018-03-24T14:01:07.746Z,7.43
2018-03-24T14:03:33.623Z,7.42
2018-03-24T14:05:59.486Z,7.01
2018-03-24T14:08:25.414Z,7.12
2018-03-24T14:10:51.267Z,7.08
2018-03-24T14:13:17.117Z,6.94
2018-03-24T14:15:43.012Z,7.13
2018-03-24T14:18:08.939Z,7.05
2018-03-24T14:20:34.784Z,7.29
2018-03-24T14:23:00.682Z,7.44
2018-03-24T14:25:26.537Z,7.45
2018-03-24T14:27:52.394Z,7.26
2018-03-24T14:30:18.283Z,7.19
2018-03-24T14:32:44.137Z,7.10
2018-03-24T14:35:09.990Z,6.94
2018-03-24T14:37:35.893Z,7.11
2018-03-24T14:40:01.794Z,7.10
2018-03-24T14:42:27.656Z,7.03
2018-03-24T14:44:53.549Z,7.11
2018-03-24T14:47:19.397Z,7.32
2018-03-24T14:49:45.266Z,7.22
2018-03-24T14:52:11.160Z,7.12
2018-03-24T14:54:37.003Z,7.07
2018-03-24T14:57:02.865Z,7.29
2018-03-24T14:59:28.774Z,7.31
2018-03-24T15:01:54.637Z,7.19
2018-03-24T15:04:20.493Z,7.24
2018-03-24T15:06:46.408Z,7.32
2018-03-24T15:09:12.256Z,7.30
2018-03-24T15:11:38.160Z,7.21
2018-03-24T15:14:04.101Z,7.31
2018-03-24T15:16:29.961Z,7.04
2018-03-24T15:18:55.965Z,7.01
2018-03-24T15:21:21.894Z,6.85
2018-03-24T15:23:47.764Z,6.89
2018-03-24T15:26:13.625Z,6.82
2018-03-24T15:28:51.970Z,6.82
2018-03-24T15:31:30.294Z,7.11
2018-03-24T15:34:08.560Z,7.00
2018-03-24T15:36:40.495Z,7.03
2018-03-24T15:39:06.374Z,7.01
2018-03-24T15:41:32.269Z,7.10
2018-03-24T15:43:58.222Z,6.93
2018-03-24T15:46:24.101Z,6.88
2018-03-24T15:48:50.010Z,6.93
2018-03-24T15:51:15.890Z,6.87
2018-03-24T15:53:41.781Z,7.01
2018-03-24T15:56:07.730Z,7.11
2018-03-24T15:58:33.577Z,7.06
2018-03-24T16:00:59.527Z,6.85
2018-03-24T16:03:25.429Z,7.01
2018-03-24T16:05:51.319Z,6.93
2018-03-24T16:08:17.235Z,6.86
2018-03-24T16:10:43.177Z,6.90
2018-03-24T16:13:09.059Z,6.88
2018-03-24T16:15:34.949Z,6.91
2018-03-24T16:18:00.871Z,6.68
2018-03-24T16:20:26.882Z,6.77
2018-03-24T16:22:52.747Z,6.73
2018-03-24T16:25:18.669Z,6.71
2018-03-24T16:27:44.524Z,6.73
2018-03-24T16:30:10.384Z,6.69
2018-03-24T16:32:36.302Z,6.66
2018-03-24T16:35:02.199Z,6.53
2018-03-24T16:37:28.122Z,6.55
2018-03-24T16:39:54.095Z,6.48
2018-03-24T16:42:19.998Z,6.44
2018-03-24T16:44:45.875Z,6.37
2018-03-24T16:47:11.794Z,6.25
2018-03-24T16:49:37.861Z,6.14
2018-03-24T16:52:03.770Z,6.02
2018-03-24T16:54:29.695Z,5.91
2018-03-24T16:56:55.573Z,5.79
2018-03-24T16:59:21.508Z,5.69
2018-03-24T17:01:47.406Z,5.54
2018-03-24T17:04:13.253Z,5.40
2018-03-24T17:06:39.106Z,5.27
2018-03-24T17:09:05.009Z,5.15
2018-03-24T17:11:30.868Z,5.03
2018-03-24T17:13:56.733Z,4.88
2018-03-24T17:16:22.625Z,4.74
2018-03-24T17:18:48.521Z,4.61
2018-03-24T17:21:14.485Z,4.46
2018-03-24T17:23:40.430Z,4.34
2018-03-24T17:26:06.378Z,4.20
2018-03-24T17:28:32.250Z,4.06
2018-03-24T17:30:58.136Z,3.95
2018-03-24T17:33:24.010Z,3.83
2018-03-24T17:35:49.875Z,3.69
2018-03-24T17:38:15.797Z,3.57
2018-03-24T17:40:41.652Z,3.49
2018-03-24T17:43:07.512Z,3.38
2018-03-24T17:45:33.429Z,3.28
2018-03-24T17:47:59.280Z,3.17
2018-03-24T17:50:25.158Z,3.10
2018-03-24T17:52:51.098Z,3.00
2018-03-24T17:55:16.961Z,2.91
2018-03-24T17:57:42.825Z,2.82
2018-03-24T18:00:08.775Z,2.75
2018-03-24T18:02:34.624Z,2.69
2018-03-24T18:05:00.468Z,2.60
2018-03-24T18:07:26.358Z,2.53
2018-03-24T18:09:52.226Z,2.46
2018-03-24T18:12:18.085Z,2.39
2018-03-24T18:14:44.003Z,2.35
2018-03-24T18:17:09.867Z,2.27
2018-03-24T18:19:35.792Z,2.22
2018-03-24T18:22:01.781Z,2.14
2018-03-24T18:24:27.643Z,2.07
2018-03-24T18:26:53.500Z,2.02
2018-03-24T18:29:19.409Z,1.99
2018-03-24T18:31:45.279Z,1.94
2018-03-24T18:34:11.228Z,1.87
2018-03-24T18:36:37.137Z,1.80
2018-03-24T18:39:03.026Z,1.77
2018-03-24T18:41:28.868Z,1.74
2018-03-24T18:43:55.135Z,1.68
2018-03-24T18:46:21.121Z,1.62
2018-03-24T18:48:46.985Z,1.57
2018-03-24T18:51:12.930Z,1.56
2018-03-24T18:53:38.810Z,1.50
2018-03-24T18:56:04.687Z,1.46
2018-03-24T18:58:30.695Z,1.43
2018-03-24T19:00:56.565Z,1.44
2018-03-24T19:03:22.523Z,1.40
2018-03-24T19:05:48.514Z,1.37
2018-03-24T19:08:14.506Z,1.33
2018-03-24T19:10:40.447Z,1.32
2018-03-24T19:13:06.471Z,1.29
2018-03-24T19:15:32.305Z,1.28
2018-03-24T19:17:58.155Z,1.27
2018-03-24T19:20:24.062Z,1.27
2018-03-24T19:22:50.068Z,1.24
2018-03-24T19:25:15.973Z,1.23
2018-03-24T19:27:41.900Z,1.24
2018-03-24T19:30:07.756Z,1.18
2018-03-24T19:32:33.633Z,1.13
2018-03-24T19:34:59.637Z,1.13
2018-03-24T19:37:25.515Z,1.08
2018-03-24T19:39:51.747Z,1.05
2018-03-24T19:42:17.653Z,1.05
2018-03-24T19:44:43.609Z,1.06
2018-03-24T19:47:09.552Z,1.02
2018-03-24T19:49:35.484Z,1.00
2018-03-24T19:52:01.636Z,0.97
2018-03-24T19:54:27.506Z,0.92
2018-03-24T19:56:53.453Z,0.89
2018-03-24T19:59:19.410Z,0.85
2018-03-24T20:01:45.270Z,0.88
2018-03-24T20:04:11.225Z,0.86
2018-03-24T20:06:37.070Z,0.84
2018-03-24T20:09:03.269Z,0.78
2018-03-24T20:11:29.243Z,0.75
2018-03-24T20:13:55.089Z,0.74
2018-03-24T20:16:20.948Z,0.69
2018-03-24T20:18:46.841Z,0.69
2018-03-24T20:21:12.890Z,0.67
2018-03-24T20:23:38.846Z,0.64
2018-03-24T20:26:04.776Z,0.62
2018-03-24T20:28:30.641Z,0.59
2018-03-24T20:30:56.506Z,0.57
2018-03-24T20:33:22.667Z,0.54
2018-03-24T20:35:48.649Z,0.52
2018-03-24T20:38:14.513Z,0.48
2018-03-24T20:40:40.412Z,0.44
2018-03-24T20:43:06.281Z,0.44
2018-03-24T20:45:32.128Z,0.41
2018-03-24T20:47:58.217Z,0.37
2018-03-24T20:50:24.085Z,0.31
2018-03-24T20:52:49.946Z,0.28
2018-03-24T20:55:15.838Z,0.22
2018-03-24T20:57:41.795Z,0.21
2018-03-24T21:00:07.875Z,0.19
2018-03-24T21:02:33.789Z,0.20
2018-03-24T21:04:59.685Z,0.21
2018-03-24T21:07:25.537Z,0.19
2018-03-24T21:09:51.437Z,0.16
2018-03-24T21:12:18.373Z,0.12
2018-03-24T21:14:44.285Z,0.16
2018-03-24T21:17:10.197Z,0.11
2018-03-24T21:19:36.124Z,0.04
2018-03-24T21:22:01.990Z,0.00
2018-03-24T21:24:27.998Z,0.01
2018-03-24T21:26:53.926Z,0.01
2018-03-24T21:29:19.753Z,0.02
2018-03-24T21:31:45.662Z,0.02
2018-03-24T21:34:11.535Z,-0.01
2018-03-24T21:36:37.484Z,0.00
2018-03-24T21:39:03.401Z,-0.04
2018-03-24T21:41:29.261Z,-0.08
2018-03-24T21:43:55.134Z,-0.10
2018-03-24T21:46:21.195Z,-0.12
2018-03-24T21:48:47.174Z,-0.11
2018-03-24T21:51:13.051Z,-0.13
2018-03-24T21:53:38.972Z,-0.14
2018-03-24T21:56:04.841Z,-0.15
2018-03-24T21:58:30.689Z,-0.20
2018-03-24T22:00:56.668Z,-0.25
2018-03-24T22:03:22.552Z,-0.29
2018-03-24T22:05:48.409Z,-0.32
2018-03-24T22:08:14.306Z,-0.35
2018-03-24T22:10:40.165Z,-0.36
2018-03-24T22:13:06.111Z,-0.34
2018-03-24T22:15:32.156Z,-0.29
2018-03-24T22:17:58.030Z,-0.32
2018-03-24T22:20:23.922Z,-0.33
2018-03-24T22:22:49.863Z,-0.35
2018-03-24T22:25:15.837Z,-0.39
2018-03-24T22:27:41.707Z,-0.42
2018-03-24T22:30:07.602Z,-0.39
2018-03-24T22:32:33.469Z,-0.40
2018-03-24T22:34:59.320Z,-0.36
2018-03-24T22:37:25.318Z,-0.34
2018-03-24T22:39:51.191Z,-0.36
2018-03-24T22:42:17.060Z,-0.43
2018-03-24T22:44:42.958Z,-0.45
2018-03-24T22:47:08.813Z,-0.44
2018-03-24T22:49:34.752Z,-0.44
2018-03-24T22:52:00.663Z,-0.50
2018-03-24T22:54:26.507Z,-0.54
2018-03-24T22:56:52.365Z,-0.53
2018-03-24T22:59:18.278Z,-0.60
2018-03-24T23:01:44.220Z,-0.61
2018-03-24T23:04:10.077Z,-0.58
2018-03-24T23:06:35.997Z,-0.54
2018-03-24T23:09:01.886Z,-0.54
2018-03-24T23:11:27.740Z,-0.62
2018-03-24T23:13:53.738Z,-0.60
2018-03-24T23:16:19.622Z,-0.61
2018-03-24T23:18:45.595Z,-0.63
2018-03-24T23:21:11.490Z,-0.64
2018-03-24T23:23:37.337Z,-0.63
2018-03-24T23:26:03.292Z,-0.63
2018-03-24T23:28:29.205Z,-0.69
2018-03-24T23:30:55.173Z,-0.63
2018-03-24T23:33:21.027Z,-0.55
2018-03-24T23:35:46.936Z,-0.59
2018-03-24T23:38:12.865Z,-0.61
2018-03-24T23:40:38.752Z,-0.54
2018-03-24T23:43:04.665Z,-0.58
2018-03-24T23:45:30.556Z,-0.57
2018-03-24T23:47:56.413Z,-0.66
2018-03-24T23:50:22.397Z,-0.67
2018-03-24T23:52:48.252Z,-0.74
2018-03-24T23:55:14.096Z,-0.74
2018-03-24T23:57:40.017Z,-0.74
